Airfield :
LOGIN :

Register | Disclaimer

   EN    FR    IT 

 










Legend :    VFR   Marginal VFR   IFR   Intensive IFR   Very Intensive IFR
Visi :
Ceiling :
>= 8 km
>= 3000ft
5 to 8 km
1000 to 3000 ft
1500m to 5 km
500 to 1000 ft
800 to 1500m
200 to 500 ft
< 800m
< 200 ft
Symbols :   Thunderstorms  Fog  Heavy snow  Heavy precipitations  Wind > 20 kt
SIGMETs :     Misc.  Thunderstorms  Icing  Turbulence  Mountain Waves  Volcanic Ashes






- Airport Elevation : 113 ft


EKRS - Ringsted

CURRENT METAR :
  • 240520Z AUTO 11004KT 000V180 9999 BKN017/// OVC025/// 04/04 Q1007

EXPIRED METARs :
  • 240450Z AUTO 10004KT 9999 BKN018/// BKN027/// 03/03 Q1007
  • 240420Z AUTO 10004KT 050V120 9999 FEW011/// SCT020/// BKN029/// 03/03 Q1007
  • 240350Z AUTO 10006KT 070V130 9999 UP FEW010/// BKN017/// OVC036/// 03/03 Q1007
  • 240320Z AUTO 10008KT 070V140 9999 -RA SCT016/// BKN019/// BKN024/// 03/03 Q1007
  • 240250Z AUTO 10006KT 9999 OVC033/// 03/03 Q1007
  • 240220Z AUTO 11005KT 080V140 9999 -DZ OVC026/// 03/03 Q1008
  • 240150Z AUTO 11005KT 010V170 9999 UP OVC026/// 03/03 Q1008
  • 240120Z AUTO VRB04KT 9999 BKN029/// OVC034/// 03/03 Q1008
  • 240050Z AUTO VRB05KT 9999 -DZ FEW019/// OVC031/// 03/03 Q1008

TAF N/A



MET'MAP, your aeronautical weather chart ! - Copyright ORBIFLY December 2007 - Disclaimer

ORBIFLY MET'MAP TEAM :

Programming & Development : Alexandra Zaïnal
Original concept : Baudouin d'Aumeries
Technical & hardware support : Manuel Goepfert
Assistance : Marc-Olivier Méhu




SOURCES & CREDITS :

   NOAA